sensor_id;sensor_type;location;lat;lon;timestamp;P1;durP1;ratioP1;P2;durP2;ratioP2
67162;SDS011;54092;53.088;8.850;2023-04-24T00:02:02;4.43;;;2.55;;
67162;SDS011;54092;53.088;8.850;2023-04-24T00:04:28;4.22;;;2.55;;
67162;SDS011;54092;53.088;8.850;2023-04-24T00:06:55;4.88;;;2.38;;
67162;SDS011;54092;53.088;8.850;2023-04-24T00:09:21;6.93;;;2.58;;
67162;SDS011;54092;53.088;8.850;2023-04-24T00:11:47;4.43;;;2.58;;
67162;SDS011;54092;53.088;8.850;2023-04-24T00:14:13;4.43;;;2.35;;
67162;SDS011;54092;53.088;8.850;2023-04-24T00:16:39;4.80;;;2.42;;
67162;SDS011;54092;53.088;8.850;2023-04-24T00:19:04;5.13;;;2.63;;
67162;SDS011;54092;53.088;8.850;2023-04-24T00:21:31;5.65;;;2.90;;
67162;SDS011;54092;53.088;8.850;2023-04-24T00:23:57;4.82;;;2.65;;
67162;SDS011;54092;53.088;8.850;2023-04-24T00:26:23;6.53;;;2.85;;
67162;SDS011;54092;53.088;8.850;2023-04-24T00:28:49;4.60;;;2.00;;
67162;SDS011;54092;53.088;8.850;2023-04-24T00:31:14;5.18;;;2.80;;
67162;SDS011;54092;53.088;8.850;2023-04-24T00:33:40;5.68;;;2.88;;
67162;SDS011;54092;53.088;8.850;2023-04-24T00:36:05;5.47;;;3.08;;
67162;SDS011;54092;53.088;8.850;2023-04-24T00:38:32;4.97;;;2.85;;
67162;SDS011;54092;53.088;8.850;2023-04-24T00:40:57;5.50;;;2.97;;
67162;SDS011;54092;53.088;8.850;2023-04-24T00:43:23;4.85;;;3.00;;
67162;SDS011;54092;53.088;8.850;2023-04-24T00:45:49;5.60;;;3.08;;
67162;SDS011;54092;53.088;8.850;2023-04-24T00:48:15;4.68;;;2.90;;
67162;SDS011;54092;53.088;8.850;2023-04-24T00:50:41;4.20;;;2.78;;
67162;SDS011;54092;53.088;8.850;2023-04-24T00:53:07;4.80;;;3.00;;
67162;SDS011;54092;53.088;8.850;2023-04-24T00:55:32;5.57;;;3.25;;
67162;SDS011;54092;53.088;8.850;2023-04-24T00:57:58;5.85;;;3.05;;
67162;SDS011;54092;53.088;8.850;2023-04-24T01:00:24;4.78;;;2.80;;
67162;SDS011;54092;53.088;8.850;2023-04-24T01:02:50;4.90;;;2.88;;
67162;SDS011;54092;53.088;8.850;2023-04-24T01:05:17;6.07;;;2.63;;
67162;SDS011;54092;53.088;8.850;2023-04-24T01:07:45;4.68;;;2.40;;
67162;SDS011;54092;53.088;8.850;2023-04-24T01:10:14;4.78;;;2.80;;
67162;SDS011;54092;53.088;8.850;2023-04-24T01:12:40;6.30;;;2.83;;
67162;SDS011;54092;53.088;8.850;2023-04-24T01:15:06;4.05;;;2.50;;
67162;SDS011;54092;53.088;8.850;2023-04-24T01:17:32;4.32;;;2.47;;
67162;SDS011;54092;53.088;8.850;2023-04-24T01:19:58;4.03;;;2.60;;
67162;SDS011;54092;53.088;8.850;2023-04-24T01:22:24;4.13;;;2.60;;
67162;SDS011;54092;53.088;8.850;2023-04-24T01:24:51;4.10;;;2.50;;
67162;SDS011;54092;53.088;8.850;2023-04-24T01:27:17;4.30;;;2.38;;
67162;SDS011;54092;53.088;8.850;2023-04-24T01:29:42;4.05;;;2.33;;
67162;SDS011;54092;53.088;8.850;2023-04-24T01:32:08;4.15;;;2.47;;
67162;SDS011;54092;53.088;8.850;2023-04-24T01:34:34;4.05;;;2.50;;
67162;SDS011;54092;53.088;8.850;2023-04-24T01:36:59;4.13;;;2.50;;
67162;SDS011;54092;53.088;8.850;2023-04-24T01:39:25;3.53;;;2.30;;
67162;SDS011;54092;53.088;8.850;2023-04-24T01:41:53;4.63;;;2.40;;
67162;SDS011;54092;53.088;8.850;2023-04-24T01:44:19;4.05;;;2.35;;
67162;SDS011;54092;53.088;8.850;2023-04-24T01:46:45;3.70;;;2.17;;
67162;SDS011;54092;53.088;8.850;2023-04-24T01:49:11;3.47;;;2.10;;
67162;SDS011;54092;53.088;8.850;2023-04-24T01:51:37;4.22;;;2.38;;
67162;SDS011;54092;53.088;8.850;2023-04-24T01:54:02;4.38;;;2.50;;
67162;SDS011;54092;53.088;8.850;2023-04-24T01:56:31;3.55;;;2.20;;
67162;SDS011;54092;53.088;8.850;2023-04-24T01:58:58;3.88;;;2.50;;
67162;SDS011;54092;53.088;8.850;2023-04-24T02:01:26;3.53;;;2.28;;
67162;SDS011;54092;53.088;8.850;2023-04-24T02:03:51;3.60;;;2.40;;
67162;SDS011;54092;53.088;8.850;2023-04-24T02:06:17;3.50;;;2.40;;
67162;SDS011;54092;53.088;8.850;2023-04-24T02:08:42;4.15;;;2.40;;
67162;SDS011;54092;53.088;8.850;2023-04-24T02:11:09;4.07;;;2.47;;
67162;SDS011;54092;53.088;8.850;2023-04-24T02:13:35;6.28;;;2.45;;
67162;SDS011;54092;53.088;8.850;2023-04-24T02:16:00;4.20;;;2.45;;
67162;SDS011;54092;53.088;8.850;2023-04-24T02:18:26;4.28;;;2.40;;
67162;SDS011;54092;53.088;8.850;2023-04-24T02:20:51;3.97;;;2.40;;
67162;SDS011;54092;53.088;8.850;2023-04-24T02:23:17;3.90;;;2.38;;
67162;SDS011;54092;53.088;8.850;2023-04-24T02:25:43;4.75;;;2.20;;
67162;SDS011;54092;53.088;8.850;2023-04-24T02:28:08;4.15;;;2.47;;
67162;SDS011;54092;53.088;8.850;2023-04-24T02:30:34;4.43;;;2.80;;
67162;SDS011;54092;53.088;8.850;2023-04-24T02:32:59;4.60;;;2.90;;
67162;SDS011;54092;53.088;8.850;2023-04-24T02:35:25;5.97;;;3.60;;
67162;SDS011;54092;53.088;8.850;2023-04-24T02:37:50;4.85;;;3.15;;
67162;SDS011;54092;53.088;8.850;2023-04-24T02:40:16;5.75;;;3.30;;
67162;SDS011;54092;53.088;8.850;2023-04-24T02:42:41;4.93;;;3.20;;
67162;SDS011;54092;53.088;8.850;2023-04-24T02:45:07;5.32;;;3.30;;
67162;SDS011;54092;53.088;8.850;2023-04-24T02:47:33;6.43;;;3.63;;
67162;SDS011;54092;53.088;8.850;2023-04-24T02:49:58;6.38;;;3.40;;
67162;SDS011;54092;53.088;8.850;2023-04-24T02:52:24;5.95;;;3.40;;
67162;SDS011;54092;53.088;8.850;2023-04-24T02:54:49;5.20;;;3.47;;
67162;SDS011;54092;53.088;8.850;2023-04-24T02:57:15;5.25;;;3.10;;
67162;SDS011;54092;53.088;8.850;2023-04-24T02:59:40;4.80;;;2.83;;
67162;SDS011;54092;53.088;8.850;2023-04-24T03:02:06;5.20;;;3.08;;
67162;SDS011;54092;53.088;8.850;2023-04-24T03:04:31;6.05;;;3.35;;
67162;SDS011;54092;53.088;8.850;2023-04-24T03:06:57;5.20;;;3.20;;
67162;SDS011;54092;53.088;8.850;2023-04-24T03:09:23;4.70;;;3.20;;
67162;SDS011;54092;53.088;8.850;2023-04-24T03:11:49;5.40;;;3.13;;
67162;SDS011;54092;53.088;8.850;2023-04-24T03:14:15;5.60;;;3.20;;
67162;SDS011;54092;53.088;8.850;2023-04-24T03:16:41;5.22;;;3.08;;
67162;SDS011;54092;53.088;8.850;2023-04-24T03:19:07;5.32;;;3.25;;
67162;SDS011;54092;53.088;8.850;2023-04-24T03:21:33;5.13;;;3.25;;
67162;SDS011;54092;53.088;8.850;2023-04-24T03:23:58;5.60;;;3.25;;
67162;SDS011;54092;53.088;8.850;2023-04-24T03:26:24;6.70;;;3.05;;
67162;SDS011;54092;53.088;8.850;2023-04-24T03:28:49;5.68;;;3.10;;
67162;SDS011;54092;53.088;8.850;2023-04-24T03:31:15;5.10;;;2.80;;
67162;SDS011;54092;53.088;8.850;2023-04-24T03:33:41;5.38;;;3.05;;
67162;SDS011;54092;53.088;8.850;2023-04-24T03:36:07;6.38;;;3.13;;
67162;SDS011;54092;53.088;8.850;2023-04-24T03:38:32;3.40;;;2.03;;
67162;SDS011;54092;53.088;8.850;2023-04-24T03:40:58;4.45;;;2.80;;
67162;SDS011;54092;53.088;8.850;2023-04-24T03:43:23;5.63;;;2.85;;
67162;SDS011;54092;53.088;8.850;2023-04-24T03:45:49;4.03;;;2.40;;
67162;SDS011;54092;53.088;8.850;2023-04-24T03:48:14;4.75;;;2.75;;
67162;SDS011;54092;53.088;8.850;2023-04-24T03:50:40;5.93;;;2.85;;
67162;SDS011;54092;53.088;8.850;2023-04-24T03:53:05;4.60;;;2.67;;
67162;SDS011;54092;53.088;8.850;2023-04-24T03:55:31;4.25;;;2.30;;
67162;SDS011;54092;53.088;8.850;2023-04-24T03:57:56;5.10;;;2.38;;
67162;SDS011;54092;53.088;8.850;2023-04-24T04:00:22;4.45;;;2.47;;
67162;SDS011;54092;53.088;8.850;2023-04-24T04:02:48;5.57;;;2.70;;
67162;SDS011;54092;53.088;8.850;2023-04-24T04:05:13;5.45;;;2.90;;
67162;SDS011;54092;53.088;8.850;2023-04-24T04:07:39;4.90;;;2.50;;
67162;SDS011;54092;53.088;8.850;2023-04-24T04:10:04;4.93;;;2.65;;
67162;SDS011;54092;53.088;8.850;2023-04-24T04:12:32;4.07;;;2.42;;
67162;SDS011;54092;53.088;8.850;2023-04-24T04:14:57;6.55;;;3.10;;
67162;SDS011;54092;53.088;8.850;2023-04-24T04:17:23;4.82;;;2.53;;
67162;SDS011;54092;53.088;8.850;2023-04-24T04:19:48;6.70;;;2.88;;
67162;SDS011;54092;53.088;8.850;2023-04-24T04:22:14;4.53;;;2.40;;
67162;SDS011;54092;53.088;8.850;2023-04-24T04:24:39;4.68;;;2.60;;
67162;SDS011;54092;53.088;8.850;2023-04-24T04:27:05;5.85;;;3.22;;
67162;SDS011;54092;53.088;8.850;2023-04-24T04:29:31;5.20;;;2.60;;
67162;SDS011;54092;53.088;8.850;2023-04-24T04:31:57;6.40;;;2.92;;
67162;SDS011;54092;53.088;8.850;2023-04-24T04:34:23;3.88;;;2.33;;
67162;SDS011;54092;53.088;8.850;2023-04-24T04:36:49;4.75;;;2.50;;
67162;SDS011;54092;53.088;8.850;2023-04-24T04:39:15;4.13;;;2.25;;
67162;SDS011;54092;53.088;8.850;2023-04-24T04:41:41;4.60;;;2.28;;
67162;SDS011;54092;53.088;8.850;2023-04-24T04:44:07;4.05;;;2.20;;
67162;SDS011;54092;53.088;8.850;2023-04-24T04:46:33;5.40;;;2.60;;
67162;SDS011;54092;53.088;8.850;2023-04-24T04:48:59;6.05;;;2.50;;
67162;SDS011;54092;53.088;8.850;2023-04-24T04:51:26;3.83;;;1.83;;
67162;SDS011;54092;53.088;8.850;2023-04-24T04:53:52;5.53;;;2.47;;
67162;SDS011;54092;53.088;8.850;2023-04-24T04:56:17;4.50;;;2.40;;
67162;SDS011;54092;53.088;8.850;2023-04-24T04:58:43;3.95;;;2.22;;
67162;SDS011;54092;53.088;8.850;2023-04-24T05:01:08;6.07;;;2.10;;
67162;SDS011;54092;53.088;8.850;2023-04-24T05:03:34;3.92;;;2.35;;
67162;SDS011;54092;53.088;8.850;2023-04-24T05:06:00;4.55;;;2.30;;
67162;SDS011;54092;53.088;8.850;2023-04-24T05:08:27;7.30;;;2.60;;
67162;SDS011;54092;53.088;8.850;2023-04-24T05:10:52;6.65;;;2.50;;
67162;SDS011;54092;53.088;8.850;2023-04-24T05:13:18;5.32;;;2.47;;
67162;SDS011;54092;53.088;8.850;2023-04-24T05:15:44;4.57;;;2.50;;
67162;SDS011;54092;53.088;8.850;2023-04-24T05:18:09;4.97;;;2.65;;
67162;SDS011;54092;53.088;8.850;2023-04-24T05:20:35;4.35;;;2.58;;
67162;SDS011;54092;53.088;8.850;2023-04-24T05:23:00;6.40;;;2.78;;
67162;SDS011;54092;53.088;8.850;2023-04-24T05:25:26;4.57;;;2.40;;
67162;SDS011;54092;53.088;8.850;2023-04-24T05:27:51;4.75;;;2.60;;
67162;SDS011;54092;53.088;8.850;2023-04-24T05:30:18;4.32;;;2.47;;
67162;SDS011;54092;53.088;8.850;2023-04-24T05:32:44;4.68;;;2.58;;
67162;SDS011;54092;53.088;8.850;2023-04-24T05:35:10;5.53;;;2.78;;
67162;SDS011;54092;53.088;8.850;2023-04-24T05:37:35;5.07;;;3.42;;
67162;SDS011;54092;53.088;8.850;2023-04-24T05:40:01;5.15;;;3.00;;
67162;SDS011;54092;53.088;8.850;2023-04-24T05:42:26;5.32;;;2.90;;
67162;SDS011;54092;53.088;8.850;2023-04-24T05:44:52;6.05;;;3.00;;
67162;SDS011;54092;53.088;8.850;2023-04-24T05:47:19;5.63;;;3.10;;
67162;SDS011;54092;53.088;8.850;2023-04-24T05:49:46;4.88;;;2.83;;
67162;SDS011;54092;53.088;8.850;2023-04-24T05:52:12;8.02;;;3.90;;
67162;SDS011;54092;53.088;8.850;2023-04-24T05:54:37;5.30;;;3.05;;
67162;SDS011;54092;53.088;8.850;2023-04-24T05:57:03;6.75;;;3.85;;
67162;SDS011;54092;53.088;8.850;2023-04-24T05:59:32;7.07;;;4.32;;
67162;SDS011;54092;53.088;8.850;2023-04-24T06:01:58;5.35;;;3.00;;
67162;SDS011;54092;53.088;8.850;2023-04-24T06:04:24;6.95;;;4.25;;
67162;SDS011;54092;53.088;8.850;2023-04-24T06:06:50;6.72;;;3.85;;
67162;SDS011;54092;53.088;8.850;2023-04-24T06:09:20;11.15;;;4.30;;
67162;SDS011;54092;53.088;8.850;2023-04-24T06:11:46;7.28;;;4.25;;
67162;SDS011;54092;53.088;8.850;2023-04-24T06:14:12;6.60;;;4.07;;
67162;SDS011;54092;53.088;8.850;2023-04-24T06:16:37;9.02;;;4.55;;
67162;SDS011;54092;53.088;8.850;2023-04-24T06:19:03;7.75;;;4.18;;
67162;SDS011;54092;53.088;8.850;2023-04-24T06:21:29;7.18;;;4.25;;
67162;SDS011;54092;53.088;8.850;2023-04-24T06:23:55;8.20;;;4.35;;
67162;SDS011;54092;53.088;8.850;2023-04-24T06:26:21;8.35;;;5.10;;
67162;SDS011;54092;53.088;8.850;2023-04-24T06:28:47;9.23;;;5.40;;
67162;SDS011;54092;53.088;8.850;2023-04-24T06:31:13;7.90;;;4.72;;
67162;SDS011;54092;53.088;8.850;2023-04-24T06:33:38;10.18;;;5.07;;
67162;SDS011;54092;53.088;8.850;2023-04-24T06:36:04;7.63;;;5.00;;
67162;SDS011;54092;53.088;8.850;2023-04-24T06:38:30;9.23;;;5.07;;
67162;SDS011;54092;53.088;8.850;2023-04-24T06:40:55;9.77;;;5.82;;
67162;SDS011;54092;53.088;8.850;2023-04-24T06:43:21;10.00;;;5.57;;
67162;SDS011;54092;53.088;8.850;2023-04-24T06:45:46;9.00;;;6.05;;
67162;SDS011;54092;53.088;8.850;2023-04-24T06:48:12;10.30;;;6.65;;
67162;SDS011;54092;53.088;8.850;2023-04-24T06:50:37;11.05;;;6.22;;
67162;SDS011;54092;53.088;8.850;2023-04-24T06:53:03;11.48;;;6.35;;
67162;SDS011;54092;53.088;8.850;2023-04-24T06:55:28;12.27;;;7.50;;
67162;SDS011;54092;53.088;8.850;2023-04-24T06:57:54;11.10;;;7.57;;
67162;SDS011;54092;53.088;8.850;2023-04-24T07:00:19;12.32;;;7.20;;
67162;SDS011;54092;53.088;8.850;2023-04-24T07:02:45;16.10;;;8.55;;
67162;SDS011;54092;53.088;8.850;2023-04-24T07:05:11;12.88;;;8.25;;
67162;SDS011;54092;53.088;8.850;2023-04-24T07:07:37;12.70;;;7.78;;
67162;SDS011;54092;53.088;8.850;2023-04-24T07:10:05;15.60;;;8.38;;
67162;SDS011;54092;53.088;8.850;2023-04-24T07:12:31;12.10;;;8.13;;
67162;SDS011;54092;53.088;8.850;2023-04-24T07:14:57;13.65;;;7.50;;
67162;SDS011;54092;53.088;8.850;2023-04-24T07:17:22;10.90;;;7.28;;
67162;SDS011;54092;53.088;8.850;2023-04-24T07:19:48;13.20;;;8.23;;
67162;SDS011;54092;53.088;8.850;2023-04-24T07:22:13;12.20;;;7.60;;
67162;SDS011;54092;53.088;8.850;2023-04-24T07:24:42;13.77;;;7.70;;
67162;SDS011;54092;53.088;8.850;2023-04-24T07:27:08;12.52;;;7.97;;
67162;SDS011;54092;53.088;8.850;2023-04-24T07:29:34;13.05;;;7.70;;
67162;SDS011;54092;53.088;8.850;2023-04-24T07:32:00;13.95;;;7.28;;
67162;SDS011;54092;53.088;8.850;2023-04-24T07:34:26;13.65;;;8.20;;
67162;SDS011;54092;53.088;8.850;2023-04-24T07:36:51;11.95;;;7.10;;
67162;SDS011;54092;53.088;8.850;2023-04-24T07:39:17;11.90;;;7.28;;
67162;SDS011;54092;53.088;8.850;2023-04-24T07:41:43;10.82;;;5.95;;
67162;SDS011;54092;53.088;8.850;2023-04-24T07:44:08;12.10;;;6.25;;
67162;SDS011;54092;53.088;8.850;2023-04-24T07:46:34;12.27;;;6.60;;
67162;SDS011;54092;53.088;8.850;2023-04-24T07:48:59;10.52;;;6.53;;
67162;SDS011;54092;53.088;8.850;2023-04-24T07:51:26;11.45;;;6.75;;
67162;SDS011;54092;53.088;8.850;2023-04-24T07:53:55;12.05;;;6.72;;
67162;SDS011;54092;53.088;8.850;2023-04-24T07:56:21;12.57;;;7.07;;
67162;SDS011;54092;53.088;8.850;2023-04-24T07:58:46;11.73;;;6.72;;
67162;SDS011;54092;53.088;8.850;2023-04-24T08:01:12;10.70;;;6.40;;
67162;SDS011;54092;53.088;8.850;2023-04-24T08:03:37;11.27;;;6.32;;
67162;SDS011;54092;53.088;8.850;2023-04-24T08:06:03;11.00;;;6.93;;
67162;SDS011;54092;53.088;8.850;2023-04-24T08:08:29;10.57;;;6.50;;
67162;SDS011;54092;53.088;8.850;2023-04-24T08:10:54;11.70;;;6.63;;
67162;SDS011;54092;53.088;8.850;2023-04-24T08:13:20;12.20;;;7.45;;
67162;SDS011;54092;53.088;8.850;2023-04-24T08:15:45;11.52;;;7.43;;
67162;SDS011;54092;53.088;8.850;2023-04-24T08:18:11;13.10;;;7.55;;
67162;SDS011;54092;53.088;8.850;2023-04-24T08:20:38;14.02;;;7.07;;
67162;SDS011;54092;53.088;8.850;2023-04-24T08:23:04;16.00;;;7.40;;
67162;SDS011;54092;53.088;8.850;2023-04-24T08:25:30;12.15;;;6.90;;
67162;SDS011;54092;53.088;8.850;2023-04-24T08:27:55;10.77;;;6.43;;
67162;SDS011;54092;53.088;8.850;2023-04-24T08:30:20;12.90;;;6.90;;
67162;SDS011;54092;53.088;8.850;2023-04-24T08:32:47;11.23;;;6.45;;
67162;SDS011;54092;53.088;8.850;2023-04-24T08:35:12;11.13;;;6.53;;
67162;SDS011;54092;53.088;8.850;2023-04-24T08:37:38;12.27;;;7.35;;
67162;SDS011;54092;53.088;8.850;2023-04-24T08:40:05;11.13;;;7.38;;
67162;SDS011;54092;53.088;8.850;2023-04-24T08:42:37;12.85;;;6.80;;
67162;SDS011;54092;53.088;8.850;2023-04-24T08:45:03;14.70;;;7.47;;
67162;SDS011;54092;53.088;8.850;2023-04-24T08:47:28;13.25;;;7.40;;
67162;SDS011;54092;53.088;8.850;2023-04-24T08:49:54;11.63;;;7.70;;
67162;SDS011;54092;53.088;8.850;2023-04-24T08:52:21;15.25;;;7.85;;
67162;SDS011;54092;53.088;8.850;2023-04-24T08:54:47;13.85;;;8.65;;
67162;SDS011;54092;53.088;8.850;2023-04-24T08:57:14;14.98;;;9.25;;
67162;SDS011;54092;53.088;8.850;2023-04-24T08:59:40;14.77;;;8.85;;
67162;SDS011;54092;53.088;8.850;2023-04-24T09:02:05;14.93;;;9.27;;
67162;SDS011;54092;53.088;8.850;2023-04-24T09:04:34;15.13;;;8.55;;
67162;SDS011;54092;53.088;8.850;2023-04-24T09:07:00;16.20;;;9.30;;
67162;SDS011;54092;53.088;8.850;2023-04-24T09:09:27;23.42;;;10.60;;
67162;SDS011;54092;53.088;8.850;2023-04-24T09:11:55;12.20;;;6.53;;
67162;SDS011;54092;53.088;8.850;2023-04-24T09:14:22;13.93;;;8.10;;
67162;SDS011;54092;53.088;8.850;2023-04-24T09:16:48;15.05;;;9.10;;
67162;SDS011;54092;53.088;8.850;2023-04-24T09:19:14;15.65;;;10.18;;
67162;SDS011;54092;53.088;8.850;2023-04-24T09:21:40;17.05;;;9.55;;
67162;SDS011;54092;53.088;8.850;2023-04-24T09:24:14;17.77;;;10.35;;
67162;SDS011;54092;53.088;8.850;2023-04-24T09:26:42;17.23;;;10.55;;
67162;SDS011;54092;53.088;8.850;2023-04-24T09:29:13;17.67;;;10.85;;
67162;SDS011;54092;53.088;8.850;2023-04-24T09:31:40;17.17;;;10.60;;
67162;SDS011;54092;53.088;8.850;2023-04-24T09:34:06;17.83;;;9.90;;
67162;SDS011;54092;53.088;8.850;2023-04-24T09:36:32;18.00;;;9.82;;
67162;SDS011;54092;53.088;8.850;2023-04-24T09:39:02;20.27;;;10.43;;
67162;SDS011;54092;53.088;8.850;2023-04-24T09:41:29;16.23;;;10.13;;
67162;SDS011;54092;53.088;8.850;2023-04-24T09:43:55;12.90;;;8.00;;
67162;SDS011;54092;53.088;8.850;2023-04-24T09:46:28;17.27;;;9.23;;
67162;SDS011;54092;53.088;8.850;2023-04-24T09:48:55;12.95;;;8.60;;
67162;SDS011;54092;53.088;8.850;2023-04-24T09:51:32;20.13;;;10.32;;
67162;SDS011;54092;53.088;8.850;2023-04-24T09:54:00;14.73;;;7.82;;
67162;SDS011;54092;53.088;8.850;2023-04-24T09:56:25;17.42;;;10.23;;
67162;SDS011;54092;53.088;8.850;2023-04-24T09:58:51;15.85;;;8.93;;
67162;SDS011;54092;53.088;8.850;2023-04-24T10:01:28;16.83;;;9.90;;
67162;SDS011;54092;53.088;8.850;2023-04-24T10:03:55;16.38;;;9.77;;
67162;SDS011;54092;53.088;8.850;2023-04-24T10:06:21;14.80;;;9.40;;
67162;SDS011;54092;53.088;8.850;2023-04-24T10:08:46;16.48;;;9.27;;
67162;SDS011;54092;53.088;8.850;2023-04-24T10:11:14;18.55;;;8.90;;
67162;SDS011;54092;53.088;8.850;2023-04-24T10:13:40;15.90;;;9.10;;
67162;SDS011;54092;53.088;8.850;2023-04-24T10:16:06;14.15;;;8.63;;
67162;SDS011;54092;53.088;8.850;2023-04-24T10:18:32;13.07;;;8.02;;
67162;SDS011;54092;53.088;8.850;2023-04-24T10:20:59;13.38;;;7.70;;
67162;SDS011;54092;53.088;8.850;2023-04-24T10:23:25;15.02;;;8.35;;
67162;SDS011;54092;53.088;8.850;2023-04-24T10:25:52;11.88;;;7.90;;
67162;SDS011;54092;53.088;8.850;2023-04-24T10:28:18;13.95;;;7.47;;
67162;SDS011;54092;53.088;8.850;2023-04-24T10:30:45;12.10;;;7.57;;
67162;SDS011;54092;53.088;8.850;2023-04-24T10:33:10;12.88;;;7.32;;
67162;SDS011;54092;53.088;8.850;2023-04-24T10:35:39;13.77;;;7.90;;
67162;SDS011;54092;53.088;8.850;2023-04-24T10:38:08;13.02;;;8.02;;
67162;SDS011;54092;53.088;8.850;2023-04-24T10:40:37;14.02;;;8.05;;
67162;SDS011;54092;53.088;8.850;2023-04-24T10:43:03;12.93;;;7.35;;
67162;SDS011;54092;53.088;8.850;2023-04-24T10:45:31;13.85;;;8.15;;
67162;SDS011;54092;53.088;8.850;2023-04-24T10:47:58;11.80;;;7.28;;
67162;SDS011;54092;53.088;8.850;2023-04-24T10:50:26;11.82;;;6.88;;
67162;SDS011;54092;53.088;8.850;2023-04-24T10:52:53;11.15;;;6.95;;
67162;SDS011;54092;53.088;8.850;2023-04-24T10:56:30;11.80;;;7.30;;
67162;SDS011;54092;53.088;8.850;2023-04-24T10:58:41;9.27;;;5.40;;
67162;SDS011;54092;53.088;8.850;2023-04-24T11:01:24;11.82;;;7.22;;
67162;SDS011;54092;53.088;8.850;2023-04-24T11:03:55;14.05;;;7.63;;
67162;SDS011;54092;53.088;8.850;2023-04-24T11:06:31;12.02;;;7.07;;
67162;SDS011;54092;53.088;8.850;2023-04-24T11:11:31;11.13;;;7.03;;
67162;SDS011;54092;53.088;8.850;2023-04-24T11:18:52;12.02;;;6.40;;
67162;SDS011;54092;53.088;8.850;2023-04-24T11:21:24;8.77;;;5.47;;
67162;SDS011;54092;53.088;8.850;2023-04-24T11:23:51;10.00;;;5.78;;
67162;SDS011;54092;53.088;8.850;2023-04-24T11:26:18;9.05;;;5.85;;
67162;SDS011;54092;53.088;8.850;2023-04-24T11:28:49;9.15;;;5.85;;
67162;SDS011;54092;53.088;8.850;2023-04-24T11:34:16;10.23;;;6.40;;
67162;SDS011;54092;53.088;8.850;2023-04-24T11:36:43;10.18;;;6.28;;
67162;SDS011;54092;53.088;8.850;2023-04-24T11:39:10;8.40;;;5.53;;
67162;SDS011;54092;53.088;8.850;2023-04-24T11:41:36;9.32;;;5.30;;
67162;SDS011;54092;53.088;8.850;2023-04-24T11:44:03;9.48;;;5.75;;
67162;SDS011;54092;53.088;8.850;2023-04-24T11:46:31;10.30;;;5.93;;
67162;SDS011;54092;53.088;8.850;2023-04-24T11:48:57;10.45;;;5.45;;
67162;SDS011;54092;53.088;8.850;2023-04-24T11:51:23;8.77;;;5.60;;
67162;SDS011;54092;53.088;8.850;2023-04-24T11:53:53;8.65;;;5.97;;
67162;SDS011;54092;53.088;8.850;2023-04-24T11:56:23;9.57;;;6.05;;
67162;SDS011;54092;53.088;8.850;2023-04-24T11:58:51;10.05;;;5.57;;
67162;SDS011;54092;53.088;8.850;2023-04-24T12:01:17;10.43;;;5.90;;
67162;SDS011;54092;53.088;8.850;2023-04-24T12:03:47;8.15;;;5.28;;
67162;SDS011;54092;53.088;8.850;2023-04-24T12:06:13;11.38;;;6.32;;
67162;SDS011;54092;53.088;8.850;2023-04-24T12:08:38;9.32;;;5.50;;
67162;SDS011;54092;53.088;8.850;2023-04-24T12:11:04;10.30;;;6.30;;
67162;SDS011;54092;53.088;8.850;2023-04-24T12:13:32;10.60;;;6.07;;
67162;SDS011;54092;53.088;8.850;2023-04-24T12:15:58;11.27;;;5.70;;
67162;SDS011;54092;53.088;8.850;2023-04-24T12:18:24;11.68;;;7.22;;
67162;SDS011;54092;53.088;8.850;2023-04-24T12:20:50;11.70;;;6.53;;
67162;SDS011;54092;53.088;8.850;2023-04-24T12:23:16;12.23;;;6.82;;
67162;SDS011;54092;53.088;8.850;2023-04-24T12:25:42;10.85;;;5.72;;
67162;SDS011;54092;53.088;8.850;2023-04-24T12:28:09;9.25;;;5.85;;
67162;SDS011;54092;53.088;8.850;2023-04-24T12:30:40;9.55;;;5.63;;
67162;SDS011;54092;53.088;8.850;2023-04-24T12:33:11;12.57;;;6.38;;
67162;SDS011;54092;53.088;8.850;2023-04-24T12:35:36;10.88;;;6.80;;
67162;SDS011;54092;53.088;8.850;2023-04-24T12:38:08;12.05;;;6.88;;
67162;SDS011;54092;53.088;8.850;2023-04-24T12:40:35;11.57;;;6.93;;
67162;SDS011;54092;53.088;8.850;2023-04-24T12:43:01;11.70;;;6.15;;
67162;SDS011;54092;53.088;8.850;2023-04-24T12:45:26;13.05;;;6.20;;
67162;SDS011;54092;53.088;8.850;2023-04-24T12:47:52;10.82;;;6.25;;
67162;SDS011;54092;53.088;8.850;2023-04-24T12:50:18;11.48;;;6.32;;
67162;SDS011;54092;53.088;8.850;2023-04-24T12:52:44;10.32;;;5.82;;
67162;SDS011;54092;53.088;8.850;2023-04-24T12:55:10;11.40;;;5.97;;
67162;SDS011;54092;53.088;8.850;2023-04-24T12:57:38;10.88;;;6.13;;
67162;SDS011;54092;53.088;8.850;2023-04-24T13:00:05;12.35;;;6.50;;
67162;SDS011;54092;53.088;8.850;2023-04-24T13:02:32;12.25;;;6.53;;
67162;SDS011;54092;53.088;8.850;2023-04-24T13:04:58;11.18;;;5.53;;
67162;SDS011;54092;53.088;8.850;2023-04-24T13:07:24;10.20;;;4.43;;
67162;SDS011;54092;53.088;8.850;2023-04-24T13:09:51;9.70;;;5.50;;
67162;SDS011;54092;53.088;8.850;2023-04-24T13:12:17;9.75;;;4.60;;
67162;SDS011;54092;53.088;8.850;2023-04-24T13:14:42;8.85;;;4.53;;
67162;SDS011;54092;53.088;8.850;2023-04-24T13:17:08;8.35;;;4.18;;
67162;SDS011;54092;53.088;8.850;2023-04-24T13:19:37;13.43;;;6.40;;
67162;SDS011;54092;53.088;8.850;2023-04-24T13:22:05;15.80;;;8.13;;
67162;SDS011;54092;53.088;8.850;2023-04-24T13:24:31;14.98;;;7.75;;
67162;SDS011;54092;53.088;8.850;2023-04-24T13:26:58;14.30;;;7.65;;
67162;SDS011;54092;53.088;8.850;2023-04-24T13:29:23;24.23;;;8.45;;
67162;SDS011;54092;53.088;8.850;2023-04-24T13:31:52;16.48;;;7.65;;
67162;SDS011;54092;53.088;8.850;2023-04-24T13:34:22;14.60;;;7.22;;
67162;SDS011;54092;53.088;8.850;2023-04-24T13:36:49;18.10;;;7.78;;
67162;SDS011;54092;53.088;8.850;2023-04-24T13:39:16;17.30;;;8.07;;
67162;SDS011;54092;53.088;8.850;2023-04-24T13:41:41;16.77;;;7.60;;
67162;SDS011;54092;53.088;8.850;2023-04-24T13:44:07;13.90;;;6.90;;
67162;SDS011;54092;53.088;8.850;2023-04-24T13:46:33;12.90;;;5.93;;
67162;SDS011;54092;53.088;8.850;2023-04-24T13:48:59;14.15;;;6.78;;
67162;SDS011;54092;53.088;8.850;2023-04-24T13:51:25;13.80;;;7.45;;
67162;SDS011;54092;53.088;8.850;2023-04-24T13:53:54;16.92;;;6.93;;
67162;SDS011;54092;53.088;8.850;2023-04-24T13:56:20;12.35;;;6.05;;
67162;SDS011;54092;53.088;8.850;2023-04-24T13:58:45;18.15;;;7.70;;
67162;SDS011;54092;53.088;8.850;2023-04-24T14:01:11;14.05;;;6.13;;
67162;SDS011;54092;53.088;8.850;2023-04-24T14:03:37;15.93;;;7.90;;
67162;SDS011;54092;53.088;8.850;2023-04-24T14:06:02;12.93;;;6.55;;
67162;SDS011;54092;53.088;8.850;2023-04-24T14:08:28;17.00;;;8.23;;
67162;SDS011;54092;53.088;8.850;2023-04-24T14:10:53;17.88;;;8.15;;
67162;SDS011;54092;53.088;8.850;2023-04-24T14:13:19;17.55;;;7.25;;
67162;SDS011;54092;53.088;8.850;2023-04-24T14:15:45;14.60;;;6.93;;
67162;SDS011;54092;53.088;8.850;2023-04-24T14:18:11;14.25;;;5.93;;
67162;SDS011;54092;53.088;8.850;2023-04-24T14:20:36;8.40;;;4.13;;
67162;SDS011;54092;53.088;8.850;2023-04-24T14:23:02;14.43;;;5.75;;
67162;SDS011;54092;53.088;8.850;2023-04-24T14:25:28;12.50;;;5.00;;
67162;SDS011;54092;53.088;8.850;2023-04-24T14:27:54;15.57;;;4.95;;
67162;SDS011;54092;53.088;8.850;2023-04-24T14:30:20;12.25;;;5.07;;
67162;SDS011;54092;53.088;8.850;2023-04-24T14:32:46;15.55;;;5.30;;
67162;SDS011;54092;53.088;8.850;2023-04-24T14:35:11;11.48;;;4.80;;
67162;SDS011;54092;53.088;8.850;2023-04-24T14:37:37;8.02;;;4.10;;
67162;SDS011;54092;53.088;8.850;2023-04-24T14:40:06;8.65;;;3.97;;
67162;SDS011;54092;53.088;8.850;2023-04-24T14:42:33;11.13;;;5.00;;
67162;SDS011;54092;53.088;8.850;2023-04-24T14:44:59;10.73;;;5.10;;
67162;SDS011;54092;53.088;8.850;2023-04-24T14:47:24;9.93;;;4.53;;